Time;durP1;ratioP1;P1;durP2;ratioP2;P2;SDS_P1;SDS_P2;PMS_P1;PMS_P2;Temp;Humidity;BMP_temperature;BMP_pressure;BME280_temperature;BME280_humidity;BME280_pressure;Samples;Min_cycle;Max_cycle;Signal;HPM_P1;HPM_P2
2022/04/11 00:01:22;;;;;;;4.93;1.48;;;8.20;99.90;;;;;;5066936;28;20059;-63
2022/04/11 00:03:50;;;;;;;4.43;1.60;;;8.20;99.90;;;;;;5072736;28;20044;-64
2022/04/11 00:06:19;;;;;;;4.32;1.60;;;8.20;99.90;;;;;;5070156;28;20045;-63
2022/04/11 00:08:46;;;;;;;5.55;1.77;;;8.10;99.90;;;;;;5068308;28;20829;-66
2022/04/11 00:11:14;;;;;;;2.40;1.38;;;8.10;99.90;;;;;;5067964;28;20059;-64
2022/04/11 00:13:42;;;;;;;3.88;1.85;;;8.10;99.90;;;;;;5071337;28;20524;-68
2022/04/11 00:16:10;;;;;;;4.32;1.50;;;8.10;99.90;;;;;;5072423;28;20044;-64
2022/04/11 00:18:38;;;;;;;5.10;1.77;;;8.10;99.90;;;;;;5071914;28;20056;-64
2022/04/11 00:21:05;;;;;;;5.53;1.40;;;8.00;99.90;;;;;;5072215;28;20049;-64
2022/04/11 00:23:33;;;;;;;2.00;1.20;;;8.00;99.90;;;;;;5072087;28;20065;-64
2022/04/11 00:26:00;;;;;;;6.80;1.50;;;8.00;99.90;;;;;;5058791;28;20388;-63
2022/04/11 00:28:28;;;;;;;2.90;1.50;;;7.90;99.90;;;;;;5050026;28;20041;-64
2022/04/11 00:30:56;;;;;;;3.88;1.65;;;7.90;99.90;;;;;;5061224;28;20143;-64
2022/04/11 00:33:24;;;;;;;4.65;1.40;;;7.90;99.90;;;;;;5072090;28;20036;-64
2022/04/11 00:35:52;;;;;;;4.85;1.95;;;7.90;99.90;;;;;;5071933;28;20150;-64
2022/04/11 00:38:19;;;;;;;3.60;1.33;;;7.80;99.90;;;;;;5072223;28;20514;-64
2022/04/11 00:40:48;;;;;;;3.47;1.05;;;7.80;99.90;;;;;;5061218;28;20064;-64
2022/04/11 00:43:38;;;;;;;4.70;1.33;;;7.80;99.90;;;;;;5052016;28;20052;-64
2022/04/11 00:46:07;;;;;;;4.75;1.33;;;7.70;99.90;;;;;;5050683;28;20049;-63
2022/04/11 00:48:36;;;;;;;6.27;1.47;;;7.70;99.50;;;;;;5050687;28;20522;-64
2022/04/11 00:51:11;;;;;;;3.50;1.00;;;7.70;99.30;;;;;;5062523;28;20045;-63
2022/04/11 00:53:43;;;;;;;4.93;1.63;;;7.60;98.50;;;;;;5071644;28;20041;-65
2022/04/11 00:56:12;;;;;;;8.10;1.30;;;7.60;98.50;;;;;;5059013;28;20045;-64
2022/04/11 00:58:40;;;;;;;4.95;1.30;;;7.60;98.40;;;;;;5051541;28;20362;-66
2022/04/11 01:01:09;;;;;;;4.50;1.00;;;7.50;97.90;;;;;;5045034;28;20048;-64
2022/04/11 01:03:37;;;;;;;5.00;0.90;;;7.50;97.20;;;;;;5067321;28;20045;-64
2022/04/11 01:06:07;;;;;;;5.05;1.25;;;7.40;97.10;;;;;;5068493;28;20044;-65
2022/04/11 01:08:35;;;;;;;2.43;1.00;;;7.40;97.10;;;;;;5071359;28;20068;-64
2022/04/11 01:11:05;;;;;;;3.80;0.82;;;7.40;97.20;;;;;;5066194;28;20036;-64
2022/04/11 01:13:33;;;;;;;3.53;1.35;;;7.30;97.10;;;;;;5050217;28;20044;-65
2022/04/11 01:16:04;;;;;;;2.45;1.13;;;7.30;96.40;;;;;;5051380;28;20052;-63
2022/04/11 01:18:35;;;;;;;4.65;0.77;;;7.30;96.70;;;;;;5050411;28;20412;-63
2022/04/11 01:21:06;;;;;;;2.53;0.88;;;7.20;96.30;;;;;;5062762;28;20395;-65
2022/04/11 01:23:34;;;;;;;2.60;1.10;;;7.40;96.60;;;;;;5070161;28;20044;-64
2022/04/11 01:26:02;;;;;;;1.75;0.90;;;7.20;96.40;;;;;;5065494;28;20048;-68
2022/04/11 01:28:31;;;;;;;4.13;0.80;;;7.20;96.30;;;;;;5033266;28;20067;-67
2022/04/11 01:30:59;;;;;;;4.32;0.75;;;7.20;95.60;;;;;;5057076;28;20053;-68
2022/04/11 01:33:29;;;;;;;5.22;1.20;;;7.20;96.00;;;;;;5071238;28;20491;-68
2022/04/11 01:36:01;;;;;;;4.07;0.80;;;7.20;95.70;;;;;;5071216;28;20498;-67
2022/04/11 01:38:29;;;;;;;8.80;1.08;;;7.20;95.30;;;;;;5070821;28;20517;-70
2022/04/11 01:40:57;;;;;;;5.10;0.85;;;7.20;95.20;;;;;;5069754;28;20530;-68
2022/04/11 01:43:26;;;;;;;5.03;1.10;;;7.10;95.50;;;;;;5072457;28;20036;-66
2022/04/11 01:45:55;;;;;;;1.30;0.98;;;7.10;95.80;;;;;;5063180;28;20055;-66
2022/04/11 01:48:44;;;;;;;3.17;1.07;;;7.10;95.60;;;;;;5050809;28;20399;-66
2022/04/11 01:51:13;;;;;;;3.03;1.33;;;7.10;95.70;;;;;;5051265;28;20045;-65
2022/04/11 01:53:41;;;;;;;6.53;1.70;;;7.10;96.30;;;;;;5052531;28;20075;-70
2022/04/11 01:56:11;;;;;;;5.68;1.90;;;7.00;96.40;;;;;;5050957;28;20045;-66
2022/04/11 01:58:39;;;;;;;3.55;1.40;;;7.00;96.70;;;;;;5050481;28;20053;-70
2022/04/11 02:01:07;;;;;;;3.50;1.50;;;7.10;97.20;;;;;;5051007;28;20045;-68
2022/04/11 02:03:35;;;;;;;4.15;1.50;;;7.00;97.30;;;;;;5052105;28;20041;-65
2022/04/11 02:06:03;;;;;;;3.35;1.63;;;7.00;97.60;;;;;;5050699;28;20403;-70
2022/04/11 02:08:31;;;;;;;4.13;1.50;;;7.00;97.60;;;;;;5052170;28;20049;-66
2022/04/11 02:11:05;;;;;;;6.07;1.88;;;7.00;97.70;;;;;;5034914;28;20079;-68
2022/04/11 02:13:34;;;;;;;4.57;1.45;;;7.00;98.00;;;;;;5051716;28;20049;-69
2022/04/11 02:16:01;;;;;;;4.32;1.80;;;7.00;98.00;;;;;;5051945;28;20044;-69
2022/04/11 02:18:29;;;;;;;5.75;2.00;;;6.90;98.10;;;;;;5050866;28;20041;-64
2022/04/11 02:20:57;;;;;;;5.80;1.80;;;6.90;98.30;;;;;;5050710;28;20045;-69
2022/04/11 02:23:25;;;;;;;6.55;1.40;;;6.90;98.70;;;;;;5051768;28;20041;-67
2022/04/11 02:25:53;;;;;;;5.85;2.45;;;6.90;98.60;;;;;;5050441;28;20055;-67
2022/04/11 02:28:21;;;;;;;4.65;1.50;;;6.80;98.90;;;;;;5050532;28;20045;-69
2022/04/11 02:30:50;;;;;;;3.05;1.60;;;6.80;99.30;;;;;;5050437;28;20553;-64
2022/04/11 02:33:19;;;;;;;4.00;1.33;;;6.70;99.20;;;;;;5051521;28;20055;-64
2022/04/11 02:35:47;;;;;;;2.95;1.20;;;6.70;98.50;;;;;;5050381;28;20494;-64
2022/04/11 02:38:16;;;;;;;3.53;1.38;;;6.70;98.50;;;;;;5050690;28;20049;-64
2022/04/11 02:40:46;;;;;;;4.30;1.40;;;6.70;98.80;;;;;;5050398;28;20586;-63
2022/04/11 02:43:19;;;;;;;4.72;1.40;;;6.70;98.40;;;;;;5050218;28;20041;-64
2022/04/11 02:45:54;;;;;;;13.90;1.60;;;6.70;98.00;;;;;;5050004;28;20049;-64
2022/04/11 02:48:30;;;;;;;2.50;1.15;;;6.70;98.00;;;;;;5050238;28;20056;-64
2022/04/11 02:51:07;;;;;;;4.72;1.17;;;6.70;97.80;;;;;;5049901;28;20033;-63
2022/04/11 02:53:43;;;;;;;7.60;1.42;;;6.80;97.60;;;;;;5050223;28;20049;-64
2022/04/11 02:56:12;;;;;;;3.78;1.25;;;6.80;97.70;;;;;;5051366;28;20063;-64
2022/04/11 02:58:39;;;;;;;2.53;1.20;;;6.80;97.70;;;;;;5050039;28;20391;-64
2022/04/11 03:01:07;;;;;;;7.07;1.52;;;6.80;97.70;;;;;;5050271;28;20180;-65
2022/04/11 03:03:37;;;;;;;3.70;1.40;;;6.80;97.60;;;;;;5050293;28;20049;-64
2022/04/11 03:06:07;;;;;;;;;;;6.80;98.00;;;;;;5050775;28;20045;-64
2022/04/11 03:08:35;;;;;;;4.05;1.55;;;6.80;97.60;;;;;;5066819;28;20394;-64
2022/04/11 03:11:05;;;;;;;;;;;6.90;97.60;;;;;;5050478;28;20040;-64
2022/04/11 03:13:32;;;;;;;3.35;1.48;;;6.90;97.00;;;;;;5051101;28;19928;-64
2022/04/11 03:16:00;;;;;;;4.55;1.30;;;6.90;97.00;;;;;;5050115;28;20041;-63
2022/04/11 03:18:28;;;;;;;5.93;1.60;;;6.90;97.10;;;;;;5050002;28;20048;-64
2022/04/11 03:20:56;;;;;;;4.68;1.40;;;6.90;97.00;;;;;;5050052;28;20503;-63
2022/04/11 03:23:25;;;;;;;4.53;1.48;;;6.90;97.40;;;;;;5049999;28;20045;-64
2022/04/11 03:25:55;;;;;;;4.85;1.95;;;6.90;97.30;;;;;;5050025;28;20045;-65
2022/04/11 03:28:27;;;;;;;5.40;2.20;;;6.90;97.70;;;;;;5050172;28;20527;-64
2022/04/11 03:30:55;;;;;;;5.50;1.80;;;6.90;97.60;;;;;;5049728;28;20542;-63
2022/04/11 03:33:26;;;;;;;5.05;1.80;;;6.90;98.00;;;;;;5049878;28;20399;-64
2022/04/11 03:35:54;;;;;;;3.25;1.60;;;6.90;97.90;;;;;;5049890;28;20060;-65
2022/04/11 03:38:22;;;;;;;5.32;1.90;;;6.90;98.30;;;;;;5049903;28;20041;-64
2022/04/11 03:40:50;;;;;;;3.83;1.80;;;6.90;98.00;;;;;;5049815;28;20048;-65
2022/04/11 03:43:18;;;;;;;3.72;1.85;;;6.80;98.30;;;;;;5049833;28;20496;-64
2022/04/11 03:45:47;;;;;;;6.53;2.15;;;6.80;98.50;;;;;;5049856;28;20044;-64
2022/04/11 03:48:17;;;;;;;7.78;1.98;;;6.80;98.70;;;;;;5049930;28;20048;-65
2022/04/11 03:50:46;;;;;;;8.10;2.00;;;6.80;98.90;;;;;;5033532;28;20392;-63
2022/04/11 03:53:16;;;;;;;10.13;2.30;;;6.80;99.00;;;;;;5049784;28;20037;-64
2022/04/11 03:55:47;;;;;;;6.85;2.03;;;6.70;98.90;;;;;;5049634;28;20047;-65
2022/04/11 03:58:16;;;;;;;6.25;2.10;;;6.80;99.30;;;;;;5049805;28;20541;-64
2022/04/11 04:00:45;;;;;;;6.28;2.38;;;6.70;99.40;;;;;;5049757;28;20048;-64
2022/04/11 04:03:20;;;;;;;7.32;2.35;;;6.70;99.60;;;;;;5051363;28;20041;-64
2022/04/11 04:05:54;;;;;;;11.32;3.42;;;6.70;99.60;;;;;;5053400;28;20045;-66
2022/04/11 04:08:26;;;;;;;12.48;2.80;;;6.70;99.90;;;;;;5053059;28;20357;-63
2022/04/11 04:11:14;;;;;;;8.02;2.20;;;6.70;99.90;;;;;;5053771;28;20056;-66
2022/04/11 04:13:48;;;;;;;5.25;2.50;;;6.70;99.90;;;;;;5036515;28;20044;-64
2022/04/11 04:16:16;;;;;;;8.07;2.45;;;6.60;99.90;;;;;;5054133;28;20075;-65
2022/04/11 04:18:51;;;;;;;4.57;2.78;;;6.60;99.90;;;;;;5037431;28;20514;-64
2022/04/11 04:21:19;;;;;;;8.20;2.47;;;6.60;99.90;;;;;;5053019;28;20041;-65
2022/04/11 04:23:48;;;;;;;5.23;2.10;;;6.60;99.90;;;;;;5052406;28;20072;-64
2022/04/11 04:26:19;;;;;;;7.22;2.67;;;6.60;99.90;;;;;;5052804;28;20488;-64
2022/04/11 04:28:47;;;;;;;7.63;2.75;;;6.60;99.90;;;;;;5052642;28;20037;-65
2022/04/11 04:31:18;;;;;;;6.00;1.77;;;6.50;99.90;;;;;;5053769;28;20060;-65
2022/04/11 04:33:45;;;;;;;4.88;2.33;;;6.50;99.90;;;;;;5052633;28;20064;-67
2022/04/11 04:36:14;;;;;;;4.93;2.30;;;6.50;99.90;;;;;;5052692;28;20049;-64
2022/04/11 04:38:42;;;;;;;4.38;2.40;;;6.40;99.90;;;;;;5052664;28;20416;-64
2022/04/11 04:41:10;;;;;;;6.97;2.35;;;6.40;99.90;;;;;;5052309;28;20377;-63
2022/04/11 04:43:38;;;;;;;12.73;4.40;;;6.40;99.90;;;;;;5068802;28;20048;-63
2022/04/11 04:46:06;;;;;;;8.05;2.50;;;6.40;99.90;;;;;;5052397;28;20397;-65
2022/04/11 04:48:50;;;;;;;6.50;2.58;;;6.30;99.90;;;;;;5049514;28;20047;-67
2022/04/11 04:51:20;;;;;;;3.97;2.60;;;6.30;99.90;;;;;;5050673;28;20037;-64
2022/04/11 04:53:59;;;;;;;10.57;2.33;;;6.30;99.90;;;;;;5032392;28;20045;-64
2022/04/11 04:56:31;;;;;;;7.13;2.05;;;6.30;99.90;;;;;;5048744;28;20045;-65
2022/04/11 04:59:03;;;;;;;9.80;2.97;;;6.30;99.90;;;;;;5068671;28;20044;-69
2022/04/11 05:01:31;;;;;;;13.15;2.70;;;6.30;99.90;;;;;;5066627;28;20041;-64
2022/04/11 05:03:59;;;;;;;10.00;3.20;;;6.30;99.90;;;;;;5045996;28;20472;-68
2022/04/11 05:06:32;;;;;;;6.85;2.83;;;6.20;99.90;;;;;;5046992;28;20492;-66
2022/04/11 05:09:00;;;;;;;8.57;2.60;;;6.20;99.90;;;;;;5065711;28;20484;-69
2022/04/11 05:11:29;;;;;;;7.10;3.38;;;6.10;99.90;;;;;;5067829;28;20057;-66
2022/04/11 05:13:56;;;;;;;8.40;2.88;;;6.10;99.90;;;;;;5067880;28;20047;-65
2022/04/11 05:16:27;;;;;;;5.28;2.60;;;6.10;99.90;;;;;;5049993;28;20048;-70
2022/04/11 05:18:56;;;;;;;4.70;2.35;;;6.00;99.90;;;;;;5061993;28;20389;-64
2022/04/11 05:21:24;;;;;;;6.00;2.83;;;6.00;99.90;;;;;;5047901;28;20381;-71
2022/04/11 05:23:51;;;;;;;5.55;2.92;;;6.00;99.90;;;;;;5050167;28;20041;-67
2022/04/11 05:26:19;;;;;;;8.55;3.25;;;6.00;99.90;;;;;;5066517;28;20076;-64
2022/04/11 05:28:50;;;;;;;6.38;3.30;;;5.90;99.90;;;;;;5068769;28;20037;-70
2022/04/11 05:31:20;;;;;;;8.48;3.58;;;5.90;99.90;;;;;;5069471;28;20048;-67
2022/04/11 05:33:49;;;;;;;10.18;4.20;;;5.90;99.90;;;;;;5049422;28;20416;-70
2022/04/11 05:36:18;;;;;;;8.10;3.47;;;6.00;99.90;;;;;;5049959;28;20489;-71
2022/04/11 05:38:47;;;;;;;11.32;3.53;;;5.90;99.90;;;;;;5064239;28;20041;-66
2022/04/11 05:41:16;;;;;;;8.02;3.25;;;5.90;99.90;;;;;;5068671;28;20039;-67
2022/04/11 05:43:48;;;;;;;6.57;3.22;;;5.90;99.90;;;;;;5069392;28;20119;-69
2022/04/11 05:46:18;;;;;;;8.57;3.38;;;5.90;99.90;;;;;;5068080;28;20527;-70
2022/04/11 05:48:54;;;;;;;11.27;3.55;;;5.90;99.90;;;;;;5061724;28;20071;-65
2022/04/11 05:51:25;;;;;;;10.73;3.22;;;5.90;99.90;;;;;;5046294;28;20401;-66
2022/04/11 05:53:53;;;;;;;5.45;2.75;;;6.00;99.90;;;;;;5047690;28;20484;-65
2022/04/11 05:56:21;;;;;;;6.13;3.67;;;6.00;99.90;;;;;;5063716;28;20048;-65
2022/04/11 05:58:48;;;;;;;10.40;3.33;;;5.90;99.90;;;;;;5069086;28;20048;-63
2022/04/11 06:01:16;;;;;;;14.82;4.30;;;6.00;99.90;;;;;;5067559;28;20041;-64
2022/04/11 06:03:44;;;;;;;9.40;3.45;;;6.00;99.90;;;;;;5065474;28;20052;-63
2022/04/11 06:06:11;;;;;;;7.28;3.60;;;6.10;99.90;;;;;;5066775;28;20045;-64
2022/04/11 06:08:39;;;;;;;13.45;4.00;;;6.00;99.90;;;;;;5048831;28;20045;-64
2022/04/11 06:11:07;;;;;;;8.65;3.92;;;6.10;99.90;;;;;;5050029;28;20041;-65
2022/04/11 06:13:35;;;;;;;11.23;4.07;;;6.10;99.90;;;;;;5070127;28;20633;-63
2022/04/11 06:16:04;;;;;;;6.97;3.70;;;6.10;99.90;;;;;;5069089;28;20048;-63
2022/04/11 06:18:32;;;;;;;7.07;4.15;;;6.10;99.90;;;;;;5064761;28;20045;-65
2022/04/11 06:20:59;;;;;;;11.45;4.80;;;6.20;99.90;;;;;;5065574;28;20056;-64
2022/04/11 06:23:28;;;;;;;9.73;4.20;;;6.20;99.90;;;;;;5048926;28;20045;-64
2022/04/11 06:25:56;;;;;;;9.73;4.05;;;6.20;99.90;;;;;;5064973;28;20041;-63
2022/04/11 06:28:27;;;;;;;11.50;4.10;;;6.20;99.90;;;;;;5060358;28;20055;-64
2022/04/11 06:30:56;;;;;;;11.57;4.72;;;6.20;99.90;;;;;;5068631;28;20053;-63
2022/04/11 06:33:24;;;;;;;11.35;4.47;;;6.30;99.90;;;;;;5065120;28;20044;-63
2022/04/11 06:35:52;;;;;;;12.13;4.57;;;6.30;99.90;;;;;;5065423;28;20045;-63
2022/04/11 06:38:21;;;;;;;9.93;4.35;;;6.30;99.90;;;;;;5068684;28;20045;-64
2022/04/11 06:40:49;;;;;;;16.70;5.10;;;6.40;99.90;;;;;;5068659;28;20041;-63
2022/04/11 06:43:17;;;;;;;12.48;4.65;;;6.30;99.90;;;;;;5048368;28;20055;-63
2022/04/11 06:45:56;;;;;;;11.77;5.22;;;6.40;99.90;;;;;;5067897;28;20051;-63
2022/04/11 06:48:25;;;;;;;13.73;5.70;;;6.50;99.90;;;;;;5067236;28;20052;-63
2022/04/11 06:50:53;;;;;;;12.13;5.18;;;6.50;99.90;;;;;;5068500;28;20067;-63
2022/04/11 06:53:21;;;;;;;10.60;5.00;;;6.50;99.90;;;;;;5069817;28;20051;-63
2022/04/11 06:55:48;;;;;;;17.88;6.15;;;6.60;99.90;;;;;;5069730;28;20044;-63
2022/04/11 06:58:17;;;;;;;15.15;6.07;;;6.60;99.90;;;;;;5068372;28;20055;-63
2022/04/11 07:00:45;;;;;;;16.35;7.15;;;6.70;99.90;;;;;;5069254;28;20502;-64
2022/04/11 07:03:13;;;;;;;14.75;6.60;;;6.80;99.90;;;;;;5065542;28;20047;-64
2022/04/11 07:05:42;;;;;;;18.15;5.93;;;6.80;99.90;;;;;;5046409;28;20056;-64
2022/04/11 07:08:10;;;;;;;14.88;6.05;;;6.90;99.90;;;;;;5055526;28;20052;-63
2022/04/11 07:10:40;;;;;;;15.65;6.55;;;6.90;99.90;;;;;;5066410;28;20048;-66
2022/04/11 07:13:08;;;;;;;13.25;6.30;;;6.90;99.90;;;;;;5049718;28;20538;-63
2022/04/11 07:15:35;;;;;;;14.60;6.47;;;7.00;99.90;;;;;;5049558;28;20059;-64
2022/04/11 07:18:03;;;;;;;14.50;6.85;;;7.00;99.90;;;;;;5052820;28;20068;-64
2022/04/11 07:20:31;;;;;;;14.35;6.05;;;7.10;99.90;;;;;;5048917;28;20056;-66
2022/04/11 07:22:59;;;;;;;16.27;5.90;;;7.10;99.90;;;;;;5048161;28;20048;-65
2022/04/11 07:25:28;;;;;;;14.20;6.13;;;7.10;99.90;;;;;;5049544;28;20412;-63
2022/04/11 07:27:56;;;;;;;10.73;6.20;;;7.10;99.90;;;;;;5056620;28;20052;-64
2022/04/11 07:30:23;;;;;;;13.07;7.03;;;7.20;99.90;;;;;;5069231;28;20053;-65
2022/04/11 07:32:51;;;;;;;13.82;5.78;;;7.20;99.90;;;;;;5068093;28;20049;-64
2022/04/11 07:35:19;;;;;;;18.00;6.88;;;7.30;99.90;;;;;;5053204;28;20068;-64
2022/04/11 07:37:46;;;;;;;13.10;5.65;;;7.30;99.90;;;;;;5057702;28;20415;-64
2022/04/11 07:40:14;;;;;;;13.07;6.05;;;7.30;99.90;;;;;;5071041;28;20055;-63
2022/04/11 07:42:42;;;;;;;12.63;6.00;;;7.40;99.90;;;;;;5068454;28;20044;-64
2022/04/11 07:45:10;;;;;;;10.70;5.20;;;7.40;99.90;;;;;;5069496;28;20056;-65
2022/04/11 07:47:37;;;;;;;13.43;5.93;;;7.40;99.90;;;;;;5069576;28;20503;-63
2022/04/11 07:50:06;;;;;;;14.35;6.00;;;7.50;99.90;;;;;;5056785;28;20045;-63
2022/04/11 07:52:41;;;;;;;11.57;5.93;;;7.50;99.90;;;;;;5052597;28;20053;-66
2022/04/11 07:55:11;;;;;;;11.80;4.72;;;7.60;99.90;;;;;;5051873;28;20049;-63
2022/04/11 07:57:39;;;;;;;14.60;5.90;;;7.70;99.90;;;;;;5057081;28;20045;-63
2022/04/11 08:00:21;;;;;;;11.45;5.57;;;7.70;99.90;;;;;;5072870;28;20041;-63
2022/04/11 08:02:53;;;;;;;13.02;5.68;;;7.80;99.90;;;;;;5071642;28;20063;-63
2022/04/11 08:05:22;;;;;;;15.23;5.95;;;7.90;99.90;;;;;;5067847;28;20045;-64
2022/04/11 08:07:50;;;;;;;10.13;5.30;;;7.90;99.90;;;;;;5058499;28;20044;-62
2022/04/11 08:10:19;;;;;;;15.55;6.15;;;8.00;99.90;;;;;;5072687;28;20040;-70
2022/04/11 08:12:54;;;;;;;11.43;6.40;;;8.10;99.90;;;;;;5071442;28;20060;-67
2022/04/11 08:15:23;;;;;;;13.23;6.43;;;8.10;99.90;;;;;;5072516;28;20048;-68
2022/04/11 08:17:53;;;;;;;12.73;5.50;;;8.20;99.90;;;;;;5072425;28;20055;-71
2022/04/11 08:20:22;;;;;;;11.32;4.68;;;8.30;99.90;;;;;;5071229;28;20045;-64
2022/04/11 08:22:51;;;;;;;12.77;5.20;;;8.30;99.90;;;;;;5072374;28;20047;-69
2022/04/11 08:25:18;;;;;;;11.95;5.05;;;8.40;99.90;;;;;;5071821;28;20059;-64
2022/04/11 08:27:48;;;;;;;11.07;6.00;;;8.50;99.90;;;;;;5050966;28;20053;-66
2022/04/11 08:30:16;;;;;;;12.02;5.25;;;8.50;99.90;;;;;;5052029;28;20044;-65
2022/04/11 08:32:46;;;;;;;13.30;6.07;;;8.50;99.90;;;;;;5052103;28;20053;-66
2022/04/11 08:35:14;;;;;;;;;;;8.60;99.90;;;;;;5051538;28;20037;-63
2022/04/11 08:37:41;;;;;;;13.63;5.85;;;8.70;99.90;;;;;;5056836;28;19924;-64
2022/04/11 08:40:14;;;;;;;13.45;5.28;;;8.80;99.90;;;;;;5072210;28;20395;-64
2022/04/11 08:42:44;;;;;;;12.82;5.35;;;8.80;99.90;;;;;;5071192;28;20407;-63
2022/04/11 08:45:17;;;;;;;10.70;5.35;;;8.90;99.90;;;;;;5071923;28;20056;-65
2022/04/11 08:47:48;;;;;;;7.80;4.18;;;9.00;99.90;;;;;;5070518;28;20059;-64
2022/04/11 08:50:16;;;;;;;11.00;4.88;;;9.10;99.90;;;;;;5066193;28;20535;-64
2022/04/11 08:52:44;;;;;;;9.30;4.43;;;9.10;99.90;;;;;;5050694;28;20056;-63
2022/04/11 08:55:12;;;;;;;13.68;5.40;;;9.20;99.90;;;;;;5051780;28;20067;-63
2022/04/11 08:57:39;;;;;;;10.38;4.43;;;9.20;99.90;;;;;;5055868;28;20044;-63
2022/04/11 09:00:15;;;;;;;7.90;4.28;;;9.20;99.90;;;;;;5071497;28;20051;-63
2022/04/11 09:02:44;;;;;;;13.35;5.10;;;9.20;99.90;;;;;;5070235;28;20529;-65
2022/04/11 09:05:19;;;;;;;9.82;4.20;;;9.30;99.90;;;;;;5070515;28;20036;-65
2022/04/11 09:07:47;;;;;;;9.98;4.43;;;9.30;99.90;;;;;;5071436;28;20044;-64
2022/04/11 09:10:19;;;;;;;10.57;4.43;;;9.40;99.90;;;;;;5069483;28;20044;-63
2022/04/11 09:12:49;;;;;;;10.25;3.97;;;9.40;99.90;;;;;;5071215;28;20434;-64
2022/04/11 09:15:18;;;;;;;11.40;4.28;;;9.50;99.90;;;;;;5071427;28;20079;-63
2022/04/11 09:17:47;;;;;;;10.60;4.30;;;9.60;99.90;;;;;;5071431;28;20049;-62
2022/04/11 09:20:21;;;;;;;9.07;4.63;;;9.60;99.90;;;;;;5057633;28;20472;-61
2022/04/11 09:22:49;;;;;;;8.27;3.72;;;9.80;99.90;;;;;;5051294;28;20052;-62
2022/04/11 09:25:20;;;;;;;10.32;4.00;;;9.80;99.90;;;;;;5051169;28;20059;-61
2022/04/11 09:28:02;;;;;;;10.10;4.28;;;9.90;99.90;;;;;;5056278;28;20060;-61
2022/04/11 09:30:33;;;;;;;9.07;3.60;;;9.90;99.90;;;;;;5071185;28;20056;-61
2022/04/11 09:33:02;;;;;;;8.30;3.85;;;10.00;99.90;;;;;;5071011;28;20395;-61
2022/04/11 09:35:35;;;;;;;8.82;3.83;;;10.00;99.90;;;;;;5061825;28;20056;-63
2022/04/11 09:38:16;;;;;;;13.13;4.20;;;10.10;99.90;;;;;;5058403;28;20048;-61
2022/04/11 09:40:48;;;;;;;10.95;4.30;;;10.30;99.90;;;;;;5068942;28;20045;-65
2022/04/11 09:43:23;;;;;;;7.05;3.97;;;10.40;99.90;;;;;;5070266;28;20052;-63
2022/04/11 09:45:51;;;;;;;6.00;3.67;;;10.60;99.90;;;;;;5070792;28;20053;-62
2022/04/11 09:48:23;;;;;;;6.50;3.70;;;10.70;99.90;;;;;;5070416;28;20053;-61
2022/04/11 09:50:53;;;;;;;12.00;3.55;;;10.80;99.90;;;;;;5065066;28;20044;-61
2022/04/11 09:53:40;;;;;;;9.50;3.70;;;10.80;99.90;;;;;;5050533;28;20049;-61
2022/04/11 09:56:09;;;;;;;23.75;4.13;;;10.90;99.90;;;;;;5050522;28;20045;-61
2022/04/11 09:58:38;;;;;;;9.35;4.00;;;11.00;99.90;;;;;;5062162;28;20040;-62
2022/04/11 10:01:07;;;;;;;11.07;4.03;;;11.00;99.90;;;;;;5069656;28;20044;-61
2022/04/11 10:03:35;;;;;;;5.75;3.70;;;11.10;99.90;;;;;;5070556;28;20134;-62
2022/04/11 10:06:05;;;;;;;10.38;3.90;;;11.10;99.90;;;;;;5064889;28;20059;-62
2022/04/11 10:08:33;;;;;;;8.68;3.65;;;11.20;99.50;;;;;;5061817;28;20052;-62
2022/04/11 10:11:01;;;;;;;7.55;3.50;;;11.20;99.40;;;;;;5063632;28;20037;-62
2022/04/11 10:13:30;;;;;;;6.63;3.20;;;11.20;99.30;;;;;;5050203;28;20058;-63
2022/04/11 10:15:59;;;;;;;7.95;3.47;;;11.30;99.90;;;;;;5050447;28;20484;-61
2022/04/11 10:18:28;;;;;;;8.40;3.95;;;11.40;99.60;;;;;;5060735;28;20044;-61
2022/04/11 10:21:03;;;;;;;9.38;3.80;;;11.60;98.80;;;;;;5060445;28;20041;-62
2022/04/11 10:23:51;;;;;;;11.50;4.15;;;11.70;98.80;;;;;;5050328;28;20037;-63
2022/04/11 10:26:19;;;;;;;9.00;4.57;;;11.90;98.90;;;;;;5049944;28;20048;-63
2022/04/11 10:28:51;;;;;;;7.97;3.97;;;12.10;98.30;;;;;;5063243;28;20052;-62
2022/04/11 10:31:19;;;;;;;11.73;3.95;;;12.30;97.80;;;;;;5069937;28;20068;-64
2022/04/11 10:33:56;;;;;;;8.02;3.55;;;12.30;96.40;;;;;;5069428;28;20048;-61
2022/04/11 10:36:37;;;;;;;8.57;4.20;;;12.30;96.60;;;;;;5053893;28;20045;-62
2022/04/11 10:39:14;;;;;;;11.02;4.57;;;12.30;96.20;;;;;;5063138;28;20067;-61
2022/04/11 10:41:54;;;;;;;9.77;4.07;;;12.30;96.90;;;;;;5069353;28;20040;-61
2022/04/11 10:44:41;;;;;;;9.18;3.65;;;12.40;97.10;;;;;;5067149;28;20377;-61
2022/04/11 10:47:09;;;;;;;10.35;3.78;;;12.40;96.50;;;;;;5065113;28;20051;-61
2022/04/11 10:49:49;;;;;;;6.50;3.42;;;12.60;95.80;;;;;;5069951;28;20056;-61
2022/04/11 10:52:36;;;;;;;7.20;3.72;;;12.70;95.20;;;;;;5068621;28;20044;-60
2022/04/11 10:55:14;;;;;;;11.48;3.78;;;12.80;95.20;;;;;;5068627;28;20063;-62
2022/04/11 10:57:55;;;;;;;8.00;4.03;;;12.90;94.40;;;;;;5067378;28;20041;-64
2022/04/11 11:00:31;;;;;;;8.02;3.90;;;13.00;95.10;;;;;;5066786;28;20048;-63
2022/04/11 11:03:01;;;;;;;8.30;3.38;;;13.20;93.70;;;;;;5067521;28;20510;-65
2022/04/11 11:05:51;;;;;;;4.85;3.45;;;13.40;93.50;;;;;;5068569;28;20052;-62
2022/04/11 11:08:20;;;;;;;6.85;3.60;;;13.60;93.60;;;;;;5069400;28;20056;-64
2022/04/11 11:10:52;;;;;;;6.97;3.13;;;13.90;92.60;;;;;;5069004;28;20045;-68
2022/04/11 11:13:34;;;;;;;6.75;3.45;;;14.10;91.30;;;;;;5073104;28;20075;-61
2022/04/11 11:16:08;;;;;;;10.85;3.42;;;14.30;91.30;;;;;;5072434;28;20051;-65
2022/04/11 11:18:48;;;;;;;5.93;3.72;;;14.40;90.10;;;;;;5072646;28;20507;-61
2022/04/11 11:21:44;;;;;;;;;;;14.50;88.60;;;;;;5072798;28;20036;-63
2022/04/11 11:24:14;;;;;;;6.10;3.10;;;14.40;89.00;;;;;;5073700;28;20311;-63
2022/04/11 11:26:53;;;;;;;8.63;3.30;;;14.40;90.10;;;;;;5073207;28;20049;-64
2022/04/11 11:29:32;;;;;;;7.22;3.45;;;14.60;86.20;;;;;;5071154;28;20480;-61
2022/04/11 11:32:05;;;;;;;7.23;3.17;;;14.60;88.50;;;;;;5073268;28;20052;-64
2022/04/11 11:34:36;;;;;;;6.40;3.33;;;14.70;85.90;;;;;;5073222;28;20305;-63
2022/04/11 11:37:07;;;;;;;16.42;3.85;;;14.70;82.90;;;;;;5059092;28;20495;-63
2022/04/11 11:39:40;;;;;;;6.57;3.60;;;14.70;83.50;;;;;;5072762;28;20055;-66
2022/04/11 11:42:10;;;;;;;8.75;3.72;;;14.70;84.20;;;;;;5071914;28;20055;-64
2022/04/11 11:44:48;;;;;;;8.13;4.03;;;14.80;84.70;;;;;;5072117;28;20051;-64
2022/04/11 11:47:17;;;;;;;13.20;4.65;;;14.90;84.00;;;;;;5072874;28;20503;-66
2022/04/11 11:49:47;;;;;;;9.10;4.10;;;15.10;85.10;;;;;;5072893;28;20431;-63
2022/04/11 11:52:17;;;;;;;11.70;3.83;;;15.30;82.80;;;;;;5071531;28;20072;-62
2022/04/11 11:54:46;;;;;;;;;;;15.40;81.20;;;;;;5072087;28;20051;-63
2022/04/11 11:57:22;;;;;;;10.07;3.50;;;15.50;80.60;;;;;;5072714;28;19920;-62
2022/04/11 11:59:54;;;;;;;8.43;3.60;;;15.60;80.60;;;;;;5072922;28;20049;-63
2022/04/11 12:05:24;;;;;;;7.85;3.78;;;15.80;79.40;;;;;;5072682;28;20041;-63
2022/04/11 12:08:14;;;;;;;7.47;3.60;;;15.90;79.00;;;;;;5059678;28;20053;-63
2022/04/11 12:10:44;;;;;;;8.18;3.33;;;15.70;75.60;;;;;;5071909;28;20047;-62
2022/04/11 12:13:21;;;;;;;7.10;3.95;;;15.60;75.10;;;;;;5071226;28;20053;-62
2022/04/11 12:15:49;;;;;;;7.10;3.00;;;15.50;75.20;;;;;;5072597;28;20045;-63
2022/04/11 12:18:16;;;;;;;13.55;3.88;;;15.60;76.60;;;;;;5072550;28;20044;-63
2022/04/11 12:20:44;;;;;;;8.10;3.00;;;15.90;76.10;;;;;;5072362;28;20385;-62
2022/04/11 12:23:14;;;;;;;6.55;3.10;;;16.20;75.10;;;;;;5051078;28;20052;-63
2022/04/11 12:25:54;;;;;;;5.57;2.63;;;16.70;73.60;;;;;;5052478;28;20657;-62
2022/04/11 12:28:27;;;;;;;8.48;3.15;;;17.10;72.60;;;;;;5061691;28;20071;-63
2022/04/11 12:31:07;;;;;;;6.53;3.45;;;17.30;70.40;;;;;;5071986;28;20041;-63
2022/04/11 12:33:44;;;;;;;8.15;3.30;;;17.30;69.90;;;;;;5071162;28;20049;-63
2022/04/11 12:36:28;;;;;;;4.85;3.03;;;17.20;71.10;;;;;;5069716;28;20494;-62
2022/04/11 12:38:58;;;;;;;11.27;3.28;;;17.10;68.90;;;;;;5066134;28;20072;-63
2022/04/11 12:41:48;;;;;;;6.68;3.08;;;16.90;70.00;;;;;;5070762;28;20071;-63
2022/04/11 12:44:16;;;;;;;10.23;3.35;;;16.70;68.80;;;;;;5066271;28;20044;-62
2022/04/11 12:47:00;;;;;;;8.25;3.05;;;16.50;69.50;;;;;;5052102;28;20053;-63
2022/04/11 12:49:48;;;;;;;9.02;3.05;;;16.40;70.50;;;;;;5062127;28;20056;-63
2022/04/11 12:52:18;;;;;;;9.70;2.88;;;16.30;69.60;;;;;;5051722;28;20075;-66
2022/04/11 12:54:47;;;;;;;;;;;16.10;70.70;;;;;;5052212;28;20052;-62
2022/04/11 12:57:29;;;;;;;7.10;2.70;;;16.00;71.50;;;;;;5051675;28;20387;-63
2022/04/11 13:00:21;;;;;;;6.07;2.85;;;16.00;71.00;;;;;;5071822;28;20060;-66
2022/04/11 13:02:48;;;;;;;6.53;2.15;;;16.10;71.40;;;;;;5071809;28;20415;-65
2022/04/11 13:05:17;;;;;;;5.88;2.47;;;16.30;70.20;;;;;;5071673;28;20048;-67
2022/04/11 13:08:02;;;;;;;8.98;2.85;;;16.70;69.90;;;;;;5062493;28;20047;-64
2022/04/11 13:10:32;;;;;;;9.30;2.72;;;17.10;70.50;;;;;;5070404;28;20048;-65
2022/04/11 13:13:01;;;;;;;6.60;2.55;;;17.30;68.10;;;;;;5071142;28;20439;-65
2022/04/11 13:15:30;;;;;;;5.15;2.40;;;17.40;67.50;;;;;;5071525;28;20107;-68